Seagoville's Hourly Summary for Wednesday, July 11, 2018
Hour Temp
(f)
RH
(%)
Solar Rad.
(MJ/m2)
Rainfall
(in)
Wind
(mph)
7/11/2018 12:00 AM 75 88 0 0 0.66
7/11/2018 1:00 AM 74 90 0 0 0.27
7/11/2018 2:00 AM 74 92 0 0 0.19
7/11/2018 3:00 AM 73 93 0 0 0.45
7/11/2018 4:00 AM 73 92 0 0 0.6
7/11/2018 5:00 AM 74 91 0 0 0.49
7/11/2018 6:00 AM 73 92 0.02 0 0.6
7/11/2018 7:00 AM 74 92 0.21 0 1.91
7/11/2018 8:00 AM 76 83 0.38 0 2.32
7/11/2018 9:00 AM 79 74 0.92 0 3.5
7/11/2018 10:00 AM 84 63 1.74 0 3.22
7/11/2018 11:00 AM 86 60 1.05 0 1.58
7/11/2018 12:00 PM 88 56 1.56 0 2.89
7/11/2018 1:00 PM 91 42 2.97 0 4.19
7/11/2018 2:00 PM 93 38 2.32 0 4.93
7/11/2018 3:00 PM 90 46 2.12 0 8.42
7/11/2018 4:00 PM 92 39 2.11 0 6.15
7/11/2018 5:00 PM 92 41 0.76 0 2.89
7/11/2018 6:00 PM 89 45 0.5 0 5.74
7/11/2018 7:00 PM 84 57 0.24 0 4.96
7/11/2018 8:00 PM 82 63 0.05 0 4.5
7/11/2018 9:00 PM 81 66 0 0 3.43
7/11/2018 10:00 PM 80 69 0 0 5.24
7/11/2018 11:00 PM 79 70 0 0 1.83
Data Summary 81 68 16.95 0.00 2.96